Time;durP1;ratioP1;P1;durP2;ratioP2;P2;SDS_P1;SDS_P2;PMS_P1;PMS_P2;Temp;Humidity;BMP_temperature;BMP_pressure;BME280_temperature;BME280_humidity;BME280_pressure;Samples;Min_cycle;Max_cycle;Signal;HPM_P1;HPM_P2
2021/11/09 00:00:58;;;;;;;42.97;24.27;;;;;;;8.10;81.73;101183.08;125212;1102;104338;-79
2021/11/09 00:03:29;;;;;;;38.55;20.82;;;;;;;8.13;81.84;101185.86;125343;1102;104192;-80
2021/11/09 00:06:07;;;;;;;37.47;21.97;;;;;;;8.12;81.48;101178.86;125203;1102;104137;-79
2021/11/09 00:08:43;;;;;;;38.57;22.40;;;;;;;8.12;81.12;101176.24;125229;1102;104136;-79
2021/11/09 00:11:14;;;;;;;36.20;21.40;;;;;;;8.10;81.98;101178.77;125186;1102;104790;-78
2021/11/09 00:13:45;;;;;;;36.97;22.47;;;;;;;8.09;81.28;101186.53;125252;1102;104182;-79
2021/11/09 00:16:16;;;;;;;41.93;22.67;;;;;;;8.09;81.74;101183.91;125204;1102;104152;-79
2021/11/09 00:18:48;;;;;;;37.30;21.40;;;;;;;8.11;82.11;101177.05;125249;1102;104175;-79
2021/11/09 00:21:20;;;;;;;39.67;22.37;;;;;;;8.11;82.06;101163.98;125121;1102;104137;-79
2021/11/09 00:23:52;;;;;;;39.97;22.13;;;;;;;8.13;81.80;101157.11;125249;1102;104583;-79
2021/11/09 00:26:23;;;;;;;39.97;22.30;;;;;;;8.13;82.03;101151.88;125243;1102;104291;-79
2021/11/09 00:28:55;;;;;;;38.23;22.23;;;;;;;8.14;81.89;101160.64;125248;1102;104159;-79
2021/11/09 00:31:26;;;;;;;38.10;21.90;;;;;;;8.14;81.96;101160.64;125205;1102;104717;-79
2021/11/09 00:33:56;;;;;;;36.87;22.17;;;;;;;8.15;81.80;101171.19;125294;1102;104140;-79
2021/11/09 00:36:28;;;;;;;41.00;22.73;;;;;;;8.16;82.09;101162.51;125288;1102;104141;-79
2021/11/09 00:39:01;;;;;;;39.33;21.35;;;;;;;8.14;82.02;101160.64;125212;1102;104242;-78
2021/11/09 00:41:32;;;;;;;36.60;20.70;;;;;;;8.15;82.29;101163.34;124986;1102;104222;-79
2021/11/09 00:44:02;;;;;;;40.30;23.43;;;;;;;8.14;82.03;101155.42;125245;1102;104252;-79
2021/11/09 00:46:35;;;;;;;39.63;23.13;;;;;;;8.13;81.83;101157.11;125223;1102;104278;-79
2021/11/09 00:49:06;;;;;;;38.10;22.43;;;;;;;8.12;81.88;101155.33;125228;1102;104182;-79
2021/11/09 00:51:38;;;;;;;40.73;22.43;;;;;;;8.11;82.25;101163.98;125156;1102;104216;-79
2021/11/09 00:54:08;;;;;;;39.10;22.23;;;;;;;8.10;82.04;101165.70;125202;1102;104329;-79
2021/11/09 00:56:41;;;;;;;38.97;23.33;;;;;;;8.09;82.00;101176.07;125144;1102;104207;-79
2021/11/09 00:59:12;;;;;;;;;;;;;;;8.10;82.41;101188.30;125220;1102;104181;-79
2021/11/09 01:01:43;;;;;;;36.70;20.77;;;;;;;8.11;82.59;101182.27;125130;1102;104175;-79
2021/11/09 01:04:13;;;;;;;39.07;20.93;;;;;;;8.09;82.17;101186.53;126259;1099;104233;-79
2021/11/09 01:06:45;;;;;;;36.43;21.03;;;;;;;8.06;81.88;101181.12;126291;1099;104274;-79
2021/11/09 01:09:16;;;;;;;39.60;22.33;;;;;;;8.04;82.43;101173.20;126251;1099;104254;-78
2021/11/09 01:11:46;;;;;;;38.00;20.93;;;;;;;8.03;82.50;101176.61;126214;1099;104172;-80
2021/11/09 01:14:20;;;;;;;39.60;22.70;;;;;;;8.03;82.75;101180.95;126257;1098;104204;-79
2021/11/09 01:16:52;;;;;;;39.55;22.17;;;;;;;8.00;82.40;101173.83;126279;1099;104198;-78
2021/11/09 01:19:24;;;;;;;39.40;22.37;;;;;;;7.98;82.58;101179.77;126298;1099;104248;-78
2021/11/09 01:21:56;;;;;;;37.27;20.43;;;;;;;7.98;82.28;101195.45;126213;1099;104156;-78
2021/11/09 01:24:27;;;;;;;42.80;23.57;;;;;;;7.97;83.02;101191.05;126270;1099;104293;-78
2021/11/09 01:27:05;;;;;;;35.97;21.57;;;;;;;7.94;82.95;101185.65;125447;1099;104153;-78
2021/11/09 01:29:44;;;;;;;38.97;21.97;;;;;;;7.93;82.59;101187.34;126276;1098;104163;-78
2021/11/09 01:32:29;;;;;;;38.20;22.17;;;;;;;7.90;82.89;101177.63;126283;1099;104155;-78
2021/11/09 01:35:04;;;;;;;36.47;20.83;;;;;;;7.89;83.08;101183.66;126291;1099;104317;-78
2021/11/09 01:40:30;;;;;;;38.83;22.10;;;;;;;7.88;83.24;101186.19;125296;1102;104204;-79
2021/11/09 01:43:05;;;;;;;;;;;;;;;7.85;82.54;101179.09;125295;1102;104166;-78
2021/11/09 01:45:36;;;;;;;38.83;21.40;;;;;;;7.86;83.14;101185.21;125349;1102;104248;-78
2021/11/09 01:48:11;;;;;;;37.03;21.37;;;;;;;7.87;82.61;101184.41;125273;1102;104573;-78
2021/11/09 01:50:47;;;;;;;40.07;21.77;;;;;;;7.86;82.82;101190.44;125225;1102;104322;-79
2021/11/09 01:53:20;;;;;;;41.60;22.60;;;;;;;7.87;82.70;101189.64;125269;1102;104156;-78
2021/11/09 01:55:57;;;;;;;39.73;22.07;;;;;;;7.87;82.90;101180.07;125263;1102;104306;-78
2021/11/09 01:58:31;;;;;;;40.77;23.00;;;;;;;7.87;83.07;101180.07;125304;1102;104315;-79
2021/11/09 02:01:05;;;;;;;39.95;21.62;;;;;;;7.86;83.64;101199.16;125316;1102;104206;-79
2021/11/09 02:03:38;;;;;;;36.93;21.50;;;;;;;7.84;83.19;101203.41;125203;1102;104476;-79
2021/11/09 02:06:10;;;;;;;40.27;22.10;;;;;;;7.81;83.29;101200.63;125266;1100;104226;-79
2021/11/09 02:08:42;;;;;;;41.57;22.53;;;;;;;7.78;83.17;101182.16;125269;1100;104306;-79
2021/11/09 02:11:13;;;;;;;38.37;21.60;;;;;;;7.76;83.26;101173.34;125361;1102;104303;-80
2021/11/09 02:13:45;;;;;;;42.93;23.70;;;;;;;7.76;83.53;101202.08;126175;1098;104323;-78
2021/11/09 02:16:18;;;;;;;41.30;21.93;;;;;;;7.77;83.18;101209.08;126263;1099;104608;-78
2021/11/09 02:18:49;;;;;;;38.50;22.77;;;;;;;7.76;83.23;101215.14;126307;1099;104174;-78
2021/11/09 02:21:21;;;;;;;41.00;22.10;;;;;;;7.76;83.39;101207.30;126319;1099;104162;-78
2021/11/09 02:23:53;;;;;;;38.97;22.33;;;;;;;7.76;83.74;101196.84;126227;1099;105515;-79
2021/11/09 02:26:26;;;;;;;36.60;22.03;;;;;;;7.76;83.66;101183.78;126279;1099;104163;-79
2021/11/09 02:29:00;;;;;;;39.20;21.87;;;;;;;7.76;83.61;101183.78;126324;1099;104945;-79
2021/11/09 02:31:31;;;;;;;39.90;22.37;;;;;;;7.77;83.32;101182.06;126354;1099;104187;-79
2021/11/09 02:34:05;;;;;;;44.97;23.10;;;;;;;7.76;83.33;101189.02;126237;1099;104229;-79
2021/11/09 02:36:35;;;;;;;36.17;21.03;;;;;;;7.77;83.56;101202.97;125284;1102;104322;-79
2021/11/09 02:39:07;;;;;;;37.43;21.90;;;;;;;7.77;83.53;101208.19;125276;1102;104268;-78
2021/11/09 02:41:39;;;;;;;39.23;22.43;;;;;;;7.77;83.65;101209.08;125264;1099;104197;-79
2021/11/09 02:44:10;;;;;;;39.13;22.10;;;;;;;7.76;83.41;101215.14;125310;1099;104159;-79
2021/11/09 02:46:50;;;;;;;40.75;22.55;;;;;;;7.77;83.61;101209.08;125250;1102;104379;-80
2021/11/09 02:49:25;;;;;;;37.80;20.97;;;;;;;7.79;83.43;101196.11;125285;1102;104389;-80
2021/11/09 02:52:02;;;;;;;38.03;21.07;;;;;;;7.77;83.35;101197.73;125262;1102;104293;-78
2021/11/09 02:54:39;;;;;;;40.23;22.13;;;;;;;7.76;83.78;101206.37;125227;1102;104200;-78
2021/11/09 02:57:17;;;;;;;;;;;;;;;7.75;83.47;101205.48;125292;1102;104325;-78
2021/11/09 02:59:58;;;;;;;36.50;20.77;;;;;;;7.76;83.38;101207.30;125262;1100;105338;-78
2021/11/09 03:02:39;;;;;;;38.37;21.50;;;;;;;7.76;83.67;101207.30;125283;1102;104153;-78
2021/11/09 03:05:16;;;;;;;36.63;20.23;;;;;;;7.77;83.11;101216.92;125258;1099;118520;-79
2021/11/09 03:07:53;;;;;;;35.97;20.00;;;;;;;7.77;83.14;101221.25;125468;1099;104373;-79
2021/11/09 03:10:31;;;;;;;39.27;20.63;;;;;;;7.78;83.31;101228.29;126306;1099;104165;-79
2021/11/09 03:13:06;;;;;;;42.53;22.40;;;;;;;7.76;83.64;101233.42;126222;1098;104290;-79
2021/11/09 03:15:43;;;;;;;37.40;20.77;;;;;;;7.73;83.29;101233.25;126220;1099;104284;-78
2021/11/09 03:18:19;;;;;;;39.25;22.13;;;;;;;7.72;83.94;101228.82;126333;1099;104159;-77
2021/11/09 03:20:55;;;;;;;37.97;20.43;;;;;;;7.71;83.87;101235.77;126323;1098;104152;-79
2021/11/09 03:40:05;;;;;;;40.33;22.37;;;;;;;7.66;84.10;101245.02;126313;1099;104309;-79
2021/11/09 03:45:23;;;;;;;39.03;21.83;;;;;;;7.66;83.94;101244.13;126187;1099;104376;-78
2021/11/09 03:48:02;;;;;;;39.53;22.87;;;;;;;7.65;83.70;101237.09;126278;1099;104159;-78
2021/11/09 03:50:35;;;;;;;36.40;21.77;;;;;;;7.66;83.56;101238.91;126266;1099;104214;-79
2021/11/09 03:53:10;;;;;;;38.10;21.53;;;;;;;7.67;84.44;101246.84;126264;1099;104184;-79
2021/11/09 03:55:56;;;;;;;39.00;21.73;;;;;;;7.66;83.84;101244.13;126229;1099;104163;-78
2021/11/09 03:58:31;;;;;;;37.80;21.97;;;;;;;7.64;83.61;101241.43;126326;1099;104242;-78
2021/11/09 04:01:05;;;;;;;39.63;21.07;;;;;;;7.63;83.73;101244.84;126278;1099;102764;-79
2021/11/09 04:03:49;;;;;;;36.93;20.40;;;;;;;7.62;83.89;101243.06;126322;1099;104255;-79
2021/11/09 04:06:29;;;;;;;37.93;20.30;;;;;;;7.61;84.06;101250.80;126258;1099;104159;-78
2021/11/09 04:09:06;;;;;;;38.70;20.00;;;;;;;7.60;83.92;101255.11;126346;1099;104162;-79
2021/11/09 04:11:45;;;;;;;37.17;21.57;;;;;;;7.58;83.89;101253.23;126274;1099;104326;-78
2021/11/09 04:14:26;;;;;;;35.77;20.30;;;;;;;7.60;83.82;101254.22;126260;1098;104262;-79
2021/11/09 04:17:01;;;;;;;36.27;20.73;;;;;;;7.59;84.17;101250.71;126251;1099;104306;-78
2021/11/09 04:19:43;;;;;;;35.70;21.10;;;;;;;7.60;83.85;101246.38;126319;1099;104197;-78
2021/11/09 04:30:42;;;;;;;39.27;20.90;;;;;;;7.65;83.80;101253.69;126313;1099;104207;-79
2021/11/09 05:09:29;;;;;;;28.47;14.33;;;;;;;7.67;83.24;101292.97;125419;1099;103627;-78
2021/11/09 05:12:00;;;;;;;31.13;14.87;;;;;;;7.61;83.44;101282.15;126237;1099;104162;-78
2021/11/09 05:14:36;;;;;;;27.47;15.07;;;;;;;7.66;83.17;101299.88;126475;1099;104210;-78
2021/11/09 05:17:17;;;;;;;31.47;14.17;;;;;;;7.65;83.19;101300.70;125534;1098;104169;-77
2021/11/09 05:19:48;;;;;;;26.33;13.73;;;;;;;7.64;83.20;101311.06;125482;1099;104313;-78
2021/11/09 05:22:19;;;;;;;27.27;13.87;;;;;;;7.63;83.19;101304.03;126188;1099;104284;-78
2021/11/09 05:24:51;;;;;;;27.70;13.63;;;;;;;7.63;83.61;101298.80;125488;1099;104178;-78
2021/11/09 05:27:30;;;;;;;29.90;14.33;;;;;;;7.63;83.02;101301.41;126170;1099;105334;-79
2021/11/09 05:30:49;;;;;;;28.80;13.80;;;;;;;7.62;83.22;101308.36;125779;1099;104152;-80
2021/11/09 05:33:33;;;;;;;25.47;13.20;;;;;;;7.65;83.24;101302.40;125585;1099;104255;-80
2021/11/09 05:36:04;;;;;;;;;;;;;;;7.66;83.54;101305.10;126524;1099;104206;-79
2021/11/09 05:38:45;;;;;;;28.87;14.60;;;;;;;7.67;83.53;101301.69;125268;1099;104144;-79
2021/11/09 05:41:18;;;;;;;28.43;14.13;;;;;;;7.69;83.65;101300.06;126244;1099;104261;-78
2021/11/09 05:43:49;;;;;;;31.70;14.40;;;;;;;7.69;83.18;101301.78;126331;1099;104254;-79
2021/11/09 05:46:20;;;;;;;27.13;14.43;;;;;;;7.70;83.22;101303.59;126307;1099;104188;-79
2021/11/09 05:48:51;;;;;;;30.03;14.60;;;;;;;7.71;83.60;101300.16;125184;1102;109322;-80
2021/11/09 05:51:23;;;;;;;30.23;14.93;;;;;;;7.74;83.12;101301.27;125161;1102;104256;-79
2021/11/09 05:53:55;;;;;;;32.30;15.40;;;;;;;7.76;82.95;101317.03;125255;1102;104307;-78
2021/11/09 05:56:26;;;;;;;31.27;16.13;;;;;;;7.77;83.09;101318.81;125209;1102;104159;-79
2021/11/09 05:58:57;;;;;;;32.27;16.37;;;;;;;7.79;83.47;101317.22;125192;1102;104858;-79
2021/11/09 06:01:27;;;;;;;36.07;16.80;;;;;;;7.82;83.29;101312.17;125269;1102;104246;-80
2021/11/09 06:03:58;;;;;;;39.20;17.73;;;;;;;7.85;82.95;101314.97;125336;1102;104217;-80
2021/11/09 06:06:30;;;;;;;33.40;17.47;;;;;;;7.92;83.03;101329.30;125136;1101;104323;-80
2021/11/09 06:09:03;;;;;;;31.93;17.37;;;;;;;7.94;83.24;101327.66;125168;1102;102365;-79
2021/11/09 06:11:34;;;;;;;35.57;18.63;;;;;;;7.96;83.08;101340.82;125216;1102;104280;-80
2021/11/09 06:14:07;;;;;;;34.97;18.13;;;;;;;8.01;83.53;101340.30;125192;1102;104402;-80
2021/11/09 06:16:39;;;;;;;38.43;18.10;;;;;;;8.08;83.54;101346.78;125270;1102;104307;-80
2021/11/09 06:19:13;;;;;;;32.33;16.50;;;;;;;8.21;83.67;101353.62;125150;1103;104159;-79
2021/11/09 06:21:44;;;;;;;35.70;17.70;;;;;;;8.28;83.33;101340.11;125254;1099;104207;-79
2021/11/09 06:24:15;;;;;;;33.77;17.63;;;;;;;8.36;82.88;101364.98;125270;1102;104254;-80
2021/11/09 06:26:52;;;;;;;42.43;18.53;;;;;;;8.41;83.55;101379.26;125111;1103;104367;-80
2021/11/09 06:29:25;;;;;;;33.73;17.70;;;;;;;8.49;83.02;101390.17;126061;1099;104179;-80
2021/11/09 06:32:20;;;;;;;31.50;16.90;;;;;;;8.55;83.53;101385.30;125491;1099;104204;-80
2021/11/09 06:35:08;;;;;;;30.50;16.40;;;;;;;8.53;83.15;101381.70;125325;1099;104144;-78
2021/11/09 06:38:08;;;;;;;31.10;15.13;;;;;;;8.48;82.63;101377.92;126080;1099;104310;-78
2021/11/09 06:40:41;;;;;;;31.37;15.00;;;;;;;8.35;83.09;101368.44;125329;1100;104147;-78
2021/11/09 06:43:12;;;;;;;27.37;14.00;;;;;;;8.30;83.26;101374.20;126292;1099;104229;-77
2021/11/09 06:45:45;;;;;;;27.03;14.03;;;;;;;8.23;83.16;101372.94;125372;1099;104249;-77
2021/11/09 06:48:18;;;;;;;29.20;14.67;;;;;;;8.20;82.83;101381.50;126175;1099;104166;-78
2021/11/09 06:50:52;;;;;;;29.80;14.80;;;;;;;8.17;82.79;101378.70;126163;1098;104210;-78
2021/11/09 06:53:28;;;;;;;29.50;13.90;;;;;;;8.19;82.76;101378.79;126125;1099;104284;-79
2021/11/09 06:55:59;;;;;;;26.73;14.37;;;;;;;8.20;82.42;101389.34;126099;1099;104175;-79
2021/11/09 06:58:35;;;;;;;27.73;14.15;;;;;;;8.23;82.88;101381.67;125984;1099;104227;-80
2021/11/09 07:01:08;;;;;;;28.30;15.17;;;;;;;8.24;82.79;101380.88;125408;1099;104175;-78
2021/11/09 07:03:44;;;;;;;28.40;14.10;;;;;;;8.30;82.75;101389.89;125280;1099;104184;-80
2021/11/09 07:06:19;;;;;;;27.70;13.95;;;;;;;8.37;82.39;101392.95;126173;1099;104446;-80
2021/11/09 07:08:50;;;;;;;29.50;14.27;;;;;;;8.42;82.84;101396.73;125954;1099;104146;-79
2021/11/09 07:11:24;;;;;;;26.83;13.97;;;;;;;8.42;82.84;101390.61;125801;1099;101689;-77
2021/11/09 07:13:58;;;;;;;27.17;12.90;;;;;;;8.43;82.12;101392.39;126144;1099;104179;-79
2021/11/09 07:16:33;;;;;;;29.00;14.20;;;;;;;8.43;82.35;101395.97;126066;1099;104282;-77
2021/11/09 07:19:07;;;;;;;30.13;14.07;;;;;;;8.44;82.49;101404.70;125173;1099;104274;-78
2021/11/09 07:21:37;;;;;;;;;;;;;;;8.46;82.11;101413.53;126087;1099;102208;-79
2021/11/09 07:24:10;;;;;;;30.83;15.70;;;;;;;8.47;82.33;101433.66;125299;1099;104191;-79
2021/11/09 07:26:46;;;;;;;36.60;16.00;;;;;;;8.52;82.17;101434.81;125293;1102;104299;-78
2021/11/09 07:29:20;;;;;;;37.17;17.80;;;;;;;8.56;82.69;101447.28;125282;1099;104191;-78
2021/11/09 07:31:56;;;;;;;35.57;17.47;;;;;;;8.60;82.09;101444.05;125293;1099;104749;-78
2021/11/09 07:34:28;;;;;;;31.23;14.97;;;;;;;8.63;81.93;101435.45;125324;1099;104168;-80
2021/11/09 07:37:00;;;;;;;32.23;15.33;;;;;;;8.65;82.44;101441.70;125286;1099;104290;-76
2021/11/09 07:39:58;;;;;;;29.97;14.60;;;;;;;8.67;81.97;101440.06;126050;1099;104156;-77
2021/11/09 07:42:30;;;;;;;33.90;15.43;;;;;;;8.71;82.44;101439.44;126157;1099;104226;-78
2021/11/09 07:45:04;;;;;;;29.07;15.00;;;;;;;8.76;81.66;101451.06;126196;1099;104154;-80
2021/11/09 07:47:39;;;;;;;28.17;13.83;;;;;;;8.79;81.49;101445.12;126245;1099;104246;-77
2021/11/09 07:50:12;;;;;;;31.60;14.47;;;;;;;8.75;81.61;101446.63;125302;1099;104162;-78
2021/11/09 07:52:45;;;;;;;31.90;14.57;;;;;;;8.73;81.25;101439.53;126177;1099;104280;-80
2021/11/09 07:55:21;;;;;;;33.03;13.80;;;;;;;8.70;81.17;101437.63;126014;1099;104249;-79
2021/11/09 07:57:58;;;;;;;32.33;13.23;;;;;;;8.71;81.30;101434.20;126293;1099;104168;-79
2021/11/09 08:00:35;;;;;;;29.90;13.60;;;;;;;8.77;81.98;101437.18;125349;1099;105544;-79
2021/11/09 08:03:17;;;;;;;31.50;14.27;;;;;;;8.80;81.42;101436.44;126171;1098;104181;-79
2021/11/09 08:09:09;;;;;;;29.17;14.03;;;;;;;8.83;81.98;101441.84;125527;1099;104245;-76
2021/11/09 08:11:45;;;;;;;31.63;13.60;;;;;;;8.83;81.14;101469.74;126093;1099;108777;-78
2021/11/09 08:14:18;;;;;;;27.23;13.80;;;;;;;8.83;81.55;101469.74;125422;1099;104169;-79
2021/11/09 08:16:50;;;;;;;26.68;13.98;;;;;;;8.83;81.05;101464.51;126170;1099;104195;-81
2021/11/09 08:19:23;;;;;;;28.03;14.20;;;;;;;8.87;81.36;101464.77;125268;1099;104146;-78
2021/11/09 08:21:56;;;;;;;28.90;13.83;;;;;;;8.87;80.40;101472.62;125301;1099;120317;-78
2021/11/09 08:24:30;;;;;;;27.00;13.57;;;;;;;8.89;80.94;101470.10;126125;1099;104161;-78
2021/11/09 08:27:11;;;;;;;30.93;12.87;;;;;;;8.89;81.40;101460.52;125280;1099;104159;-78
2021/11/09 08:29:49;;;;;;;25.57;12.40;;;;;;;8.90;80.87;101464.06;125384;1099;104175;-78
2021/11/09 08:32:23;;;;;;;26.07;12.20;;;;;;;8.90;80.97;101458.83;126244;1098;104281;-77
2021/11/09 08:34:57;;;;;;;25.40;12.53;;;;;;;8.90;80.58;101461.45;125346;1099;104220;-80
2021/11/09 08:37:36;;;;;;;25.70;12.10;;;;;;;8.90;81.11;101470.19;126189;1099;104421;-80
2021/11/09 08:40:17;;;;;;;25.60;11.75;;;;;;;8.89;80.40;101470.99;126198;1099;105477;-79
2021/11/09 08:42:57;;;;;;;28.53;12.73;;;;;;;8.91;80.42;101461.53;125437;1099;104182;-81
2021/11/09 08:45:36;;;;;;;27.60;12.50;;;;;;;8.94;80.76;101480.04;126139;1099;104210;-80
2021/11/09 08:48:13;;;;;;;25.53;12.23;;;;;;;8.97;80.43;101469.71;126089;1098;104205;-80
2021/11/09 08:50:48;;;;;;;25.47;11.73;;;;;;;8.98;80.46;101474.14;126003;1099;104329;-77
2021/11/09 08:53:30;;;;;;;27.23;10.93;;;;;;;8.97;80.50;101479.29;126042;1099;104149;-78
2021/11/09 09:04:16;;;;;;;27.73;11.70;;;;;;;9.02;80.42;101479.55;125202;1099;104470;-78
2021/11/09 09:06:50;;;;;;;24.92;11.18;;;;;;;9.08;79.94;101485.14;125909;1099;104309;-77
2021/11/09 09:09:25;;;;;;;24.77;11.70;;;;;;;9.13;80.14;101487.23;125222;1099;104280;-78
2021/11/09 09:11:58;;;;;;;25.82;11.28;;;;;;;9.21;79.91;101485.05;125311;1099;104226;-80
2021/11/09 09:14:35;;;;;;;23.50;11.27;;;;;;;9.31;79.96;101489.97;126085;1099;104756;-79
2021/11/09 09:17:08;;;;;;;21.37;10.70;;;;;;;9.38;80.01;101487.70;125248;1099;104302;-80
2021/11/09 09:19:42;;;;;;;22.23;10.17;;;;;;;9.42;79.83;101497.55;125317;1099;104261;-80
2021/11/09 09:22:16;;;;;;;23.60;10.83;;;;;;;9.39;79.07;101508.74;126119;1099;104146;-80
2021/11/09 09:25:05;;;;;;;25.50;10.43;;;;;;;9.37;79.35;101506.88;125308;1099;104172;-81
2021/11/09 09:28:03;;;;;;;23.47;10.20;;;;;;;9.35;79.18;101518.16;126189;1099;104330;-81
2021/11/09 09:30:58;;;;;;;28.43;11.00;;;;;;;9.41;78.74;101524.55;126173;1099;104332;-81
2021/11/09 09:53:33;;;;;;;21.47;10.27;;;;;;;9.27;77.59;101490.63;125331;1099;104240;-79
2021/11/09 09:56:08;;;;;;;22.23;11.20;;;;;;;9.29;77.09;101496.84;126102;1099;104252;-78
2021/11/09 09:58:40;;;;;;;22.10;10.33;;;;;;;9.28;76.75;101495.03;126058;1099;104176;-77
2021/11/09 10:01:17;;;;;;;23.73;11.13;;;;;;;9.31;77.39;101497.83;126042;1099;104612;-78
2021/11/09 10:03:48;;;;;;;25.33;11.20;;;;;;;9.35;76.63;101491.96;125958;1099;104259;-79
2021/11/09 10:06:20;;;;;;;23.97;10.87;;;;;;;9.39;77.65;101476.41;125997;1099;104156;-77
2021/11/09 10:08:53;;;;;;;26.30;11.00;;;;;;;9.43;77.33;101481.91;125893;1099;104155;-78
2021/11/09 10:11:35;;;;;;;28.52;13.13;;;;;;;9.43;77.09;101495.02;125187;1099;104242;-77
2021/11/09 10:14:08;;;;;;;24.30;11.00;;;;;;;9.44;77.15;101495.91;125265;1099;104222;-79
2021/11/09 10:16:41;;;;;;;23.70;10.90;;;;;;;9.49;77.46;101499.67;125980;1099;104176;-79
2021/11/09 10:19:33;;;;;;;23.93;11.40;;;;;;;9.52;77.21;101519.11;125957;1099;104249;-79
2021/11/09 10:22:18;;;;;;;24.30;11.37;;;;;;;9.57;76.94;101535.09;125360;1102;104284;-81
2021/11/09 10:24:55;;;;;;;21.93;10.77;;;;;;;9.61;77.17;101542.29;125261;1099;109170;-78
2021/11/09 10:27:30;;;;;;;25.13;11.63;;;;;;;9.68;76.73;101527.83;126016;1099;104149;-78
2021/11/09 10:30:14;;;;;;;23.53;10.60;;;;;;;9.70;77.03;101526.19;125155;1099;104232;-76
2021/11/09 10:32:46;;;;;;;26.70;11.27;;;;;;;9.65;76.41;101535.52;125837;1099;104267;-78
2021/11/09 10:35:21;;;;;;;22.77;10.97;;;;;;;9.65;76.82;101520.69;125187;1099;119000;-77
2021/11/09 10:37:54;;;;;;;22.67;10.40;;;;;;;9.68;76.77;101507.75;125156;1099;104277;-78
2021/11/09 10:40:31;;;;;;;26.60;11.50;;;;;;;9.75;76.61;101516.85;126108;1099;104178;-78
2021/11/09 10:43:10;;;;;;;22.13;10.47;;;;;;;9.76;75.70;101523.91;125317;1099;104192;-78
2021/11/09 10:46:10;;;;;;;25.50;10.70;;;;;;;9.69;75.60;101506.95;125401;1099;105675;-79
2021/11/09 10:48:47;;;;;;;23.73;10.07;;;;;;;9.63;74.88;101508.31;125239;1099;104261;-79
2021/11/09 10:52:05;;;;;;;;;;;;;;;;;;;;;
2021/11/09 10:54:58;;;;;;;19.40;10.07;;;;;;;9.65;75.41;101523.31;125997;1099;104201;-76
2021/11/09 10:58:10;;;;;;;22.10;10.70;;;;;;;9.74;74.88;101528.17;126201;1099;104143;-77
2021/11/09 11:03:37;;;;;;;24.27;10.90;;;;;;;9.79;74.60;101525.81;125181;1099;104166;-77
2021/11/09 11:06:22;;;;;;;23.97;10.90;;;;;;;9.75;74.60;101524.72;126153;1099;107099;-78
2021/11/09 11:09:00;;;;;;;21.67;10.63;;;;;;;9.73;74.14;101513.25;126152;1099;104152;-79
2021/11/09 11:11:34;;;;;;;22.50;11.17;;;;;;;9.73;74.37;101509.74;126265;1099;104270;-79
2021/11/09 11:14:17;;;;;;;23.53;11.03;;;;;;;9.77;74.75;101515.23;126125;1099;104615;-80
2021/11/09 11:16:50;;;;;;;25.43;11.07;;;;;;;9.80;74.71;101514.48;126013;1099;104284;-81
2021/11/09 11:19:29;;;;;;;23.37;11.37;;;;;;;9.83;74.24;101506.79;126049;1099;104194;-77
2021/11/09 11:22:05;;;;;;;22.77;11.23;;;;;;;9.88;74.21;101515.83;125968;1099;104589;-77
2021/11/09 11:24:38;;;;;;;23.60;12.07;;;;;;;9.89;74.64;101522.85;125964;1099;104265;-79
2021/11/09 11:27:10;;;;;;;24.57;11.83;;;;;;;9.91;74.02;101534.35;125987;1099;104214;-79
2021/11/09 11:29:43;;;;;;;27.17;12.60;;;;;;;9.93;73.99;101540.56;125159;1102;104625;-79
2021/11/09 11:32:22;;;;;;;27.13;13.43;;;;;;;9.97;74.01;101552.12;125173;1099;104143;-79
2021/11/09 11:34:56;;;;;;;25.33;12.70;;;;;;;10.01;74.07;101549.75;125953;1099;104191;-79
2021/11/09 11:37:28;;;;;;;23.37;12.40;;;;;;;10.07;74.04;101559.68;126021;1099;104248;-78
2021/11/09 11:40:05;;;;;;;22.07;11.90;;;;;;;10.09;73.65;101558.03;125094;1102;104217;-79
2021/11/09 11:42:41;;;;;;;26.37;12.83;;;;;;;10.08;73.66;101546.66;125214;1102;104239;-80
2021/11/09 11:45:12;;;;;;;25.87;12.47;;;;;;;10.07;73.46;101544.84;125088;1102;104259;-80
2021/11/09 11:48:02;;;;;;;25.67;12.60;;;;;;;10.05;73.00;101548.19;125196;1102;104012;-79
2021/11/09 11:50:40;;;;;;;24.27;12.50;;;;;;;10.01;73.14;101560.23;125161;1102;104184;-78
2021/11/09 11:53:15;;;;;;;28.07;13.87;;;;;;;10.00;72.80;101568.95;125176;1102;104147;-77
2021/11/09 11:55:51;;;;;;;28.47;12.97;;;;;;;9.99;73.28;101558.38;125132;1102;104303;-77
2021/11/09 11:58:32;;;;;;;23.87;11.80;;;;;;;9.96;72.50;101566.06;125154;1102;104325;-77
2021/11/09 12:01:03;;;;;;;24.57;11.40;;;;;;;9.89;72.76;101564.80;125169;1102;104175;-78
2021/11/09 12:03:44;;;;;;;21.93;12.07;;;;;;;9.86;72.60;101580.36;125102;1102;104248;-77
2021/11/09 12:06:22;;;;;;;25.23;12.05;;;;;;;9.87;73.08;101583.06;125174;1102;104178;-78
2021/11/09 12:08:55;;;;;;;25.17;12.17;;;;;;;9.91;73.11;101578.92;125106;1102;104316;-76
2021/11/09 12:11:40;;;;;;;25.03;12.53;;;;;;;9.98;72.89;101580.16;125359;1099;104297;-76
2021/11/09 12:14:17;;;;;;;27.23;12.87;;;;;;;10.03;73.04;101574.33;125216;1099;104229;-78
2021/11/09 12:16:58;;;;;;;25.40;13.03;;;;;;;10.07;72.45;101583.28;125271;1099;104303;-78
2021/11/09 12:19:50;;;;;;;25.27;12.27;;;;;;;10.12;72.92;101586.16;126045;1098;104217;-76
2021/11/09 12:22:23;;;;;;;21.87;11.20;;;;;;;10.23;72.29;101590.27;125184;1099;104242;-77
2021/11/09 12:25:01;;;;;;;23.50;11.10;;;;;;;10.34;72.19;101581.28;125906;1099;104319;-77
2021/11/09 12:28:04;;;;;;;21.00;10.37;;;;;;;10.40;72.11;101581.61;125968;1098;104178;-75
2021/11/09 12:30:47;;;;;;;20.57;10.53;;;;;;;10.50;71.13;101592.59;125514;1099;104226;-77
2021/11/09 12:33:25;;;;;;;21.70;10.43;;;;;;;10.50;71.49;101597.84;126156;1099;104245;-76
2021/11/09 12:36:19;;;;;;;21.83;9.77;;;;;;;10.45;70.03;101601.95;126175;1098;104166;-78
2021/11/09 12:38:51;;;;;;;21.30;9.43;;;;;;;10.38;69.88;101608.61;126218;1099;104313;-76
2021/11/09 12:41:24;;;;;;;23.63;8.47;;;;;;;10.34;71.15;101607.52;126167;1099;104243;-77
2021/11/09 12:44:01;;;;;;;18.10;8.27;;;;;;;10.34;70.45;101617.12;126062;1099;104492;-77
2021/11/09 12:46:37;;;;;;;16.47;8.23;;;;;;;10.29;70.11;101623.81;126176;1099;104634;-78
2021/11/09 12:49:11;;;;;;;19.53;9.03;;;;;;;10.24;70.98;101627.07;126238;1099;104153;-79
2021/11/09 12:51:45;;;;;;;19.20;8.30;;;;;;;10.22;70.23;101638.28;126095;1099;104315;-76
2021/11/09 12:54:16;;;;;;;;;;;;;;;10.21;69.60;101639.12;125222;1102;104642;-78
2021/11/09 12:56:56;;;;;;;21.67;9.00;;;;;;;10.21;69.84;101649.63;125154;1099;104239;-76
2021/11/09 12:59:37;;;;;;;22.30;9.35;;;;;;;10.23;70.01;101643.62;125107;1102;104163;-76
2021/11/09 13:02:14;;;;;;;20.80;8.97;;;;;;;10.25;69.16;101648.95;125078;1102;104153;-77
2021/11/09 13:04:50;;;;;;;18.60;8.85;;;;;;;10.25;70.50;101649.88;125052;1102;104370;-77
2021/11/09 13:07:29;;;;;;;20.30;9.50;;;;;;;10.26;69.97;101661.26;125111;1102;104307;-77
2021/11/09 13:10:10;;;;;;;21.03;9.87;;;;;;;10.23;69.82;101646.24;125120;1102;104191;-77
2021/11/09 13:12:42;;;;;;;22.00;9.70;;;;;;;10.24;70.23;101649.79;125130;1102;104188;-77
2021/11/09 13:15:17;;;;;;;19.70;9.70;;;;;;;10.20;69.41;101646.07;125298;1102;104165;-78
2021/11/09 13:17:54;;;;;;;18.57;8.80;;;;;;;10.16;69.36;101651.06;125169;1102;104209;-77
2021/11/09 13:20:36;;;;;;;21.03;10.00;;;;;;;10.15;69.90;101657.14;125230;1102;104226;-78
2021/11/09 13:23:10;;;;;;;23.93;9.57;;;;;;;10.14;69.86;101656.22;125214;1102;104185;-78
2021/11/09 13:25:45;;;;;;;19.87;8.87;;;;;;;10.13;68.85;101658.75;125150;1102;104657;-75